• Join FlightAware (Why Join?)
  • Login
  • US Flag 
Gobble Gobble! 
09:41AM EST


 

Airport Tracker/Info


-or-


 

Live Flight TrackerFlight Track Log ✈ AWI53A ✈ 16-Apr-2013 ✈ KDCA - KCHS

Flight Track Log - Related Links

Times and Time Zones

All times are in EDT time to prevent confusion due to time zone crossing. See the AWI53A flight status page for this flight to view local times or setup timezone preferences in your user account.

Time Position Orientation Groundspeed Altitude Reporting Facility
EDT Latitude Longitude Course Direction KTS MPH feet Rate Location/Type
09:34AM 38.7833 -77.0333 180° South 206 237 3,100  Level Potomac TRACON
09:35AM 38.7333 -76.9667 134° Southeast 261 300 5,900 2,520 Climbing Potomac TRACON
09:36AM 38.6667 -76.9000 142° Southeast 282 325 8,300 2,220 Climbing Potomac TRACON
09:36AM 38.6442 -76.8542 122° Southeast 295 339 9,100 2,040 Climbing Washington Center
09:37AM 38.5906 -76.7764 131° Southeast 309 356 11,200 1,500 Climbing Washington Center
09:38AM 38.5225 -76.7169 146° Southeast 318 366 12,200 1,200 Climbing Washington Center
09:39AM 38.3033 -76.6833 180° South  Level FlightAware Approximate
09:39AM 38.4203 -76.7047 175° South 326 375 13,600  Level Washington Center
09:40AM 38.3183 -76.6925 175° South 353 406 15,100 1,500 Climbing Washington Center
09:41AM 38.2161 -76.6886 178° South 370 426 16,700 1,320 Climbing Washington Center
09:42AM 38.1136 -76.7161 192° South 370 426 17,800 900 Climbing Washington Center
09:43AM 38.0094 -76.7303 186° South 375 432 18,500 720 Climbing Washington Center
09:44AM 37.9008 -76.7261 178° South 380 437 19,300 900 Climbing Washington Center
09:45AM 37.7903 -76.7244 179° South 392 451 20,300 900 Climbing Washington Center
09:46AM 37.6800 -76.7200 178° South 397 457 21,200 780 Climbing Washington Center
09:47AM 37.5653 -76.7158 178° South 402 463 21,900 1,020 Climbing Washington Center
09:48AM 37.4547 -76.7117 178° South 402 463 23,300 1,380 Climbing Washington Center
09:49AM 37.3481 -76.7492 196° South 402 463 24,700 1,440 Climbing Washington Center
09:50AM 37.2475 -76.7919 199° South 391 450 26,200 1,260 Climbing Washington Center
09:51AM 37.1489 -76.8347 199° South 386 444 27,300 840 Climbing Washington Center
09:52AM 37.0547 -76.8722 198° South 381 438 27,900 600 Climbing Washington Center
09:53AM 36.9519 -76.9175 199° South 381 438 28,600 660 Climbing Washington Center
09:54AM 36.8514 -76.9572 198° South 388 447 29,300 540 Climbing Washington Center
09:55AM 36.7467 -76.9994 198° South 388 447 29,800 300 Climbing Washington Center
09:56AM 36.6539 -77.0678 211° Southwest 388 447 30,000 60 Climbing Washington Center
09:57AM 36.5675 -77.1514 218° Southwest 394 453 30,000  Level Washington Center
09:58AM 36.4764 -77.2400 218° Southwest 406 467 30,000  Level Washington Center
09:59AM 36.3833 -77.3283 217° Southwest 418 481 30,000  Level Washington Center
10:00AM 36.2903 -77.4164 217° Southwest 424 488 30,000  Level Washington Center
10:01AM 36.2078 -77.4917 216° Southwest 418 481 30,000  Level Washington Center
10:02AM 36.1125 -77.5794 217° Southwest 423 487 30,000  Level Washington Center
10:03AM 36.0169 -77.6694 217° Southwest 428 493 30,000  Level Washington Center
10:04AM 35.9153 -77.7542 214° Southwest 438 504 30,000  Level Washington Center
10:05AM 35.8117 -77.8358 213° Southwest 444 511 30,000  Level Washington Center
10:06AM 35.7078 -77.9147 212° Southwest 444 511 30,000  Level Washington Center
10:07AM 35.6061 -77.9933 212° Southwest 444 511 30,000  Level Washington Center
10:08AM 35.5022 -78.0744 212° Southwest 444 511 30,000  Level Washington Center
10:09AM 35.3983 -78.1553 212° Southwest 444 511 30,000  Level Washington Center
10:10AM 35.2944 -78.2361 212° Southwest 444 511 30,000  Level Washington Center
10:11AM 35.1903 -78.3167 212° Southwest 444 511 30,000  Level Washington Center
10:12AM 35.0861 -78.3967 212° Southwest 444 511 30,000 -240 Level Washington Center
10:13AM 34.9842 -78.4769 213° Southwest 444 511 29,600 -660 Descending Washington Center
10:14AM 34.8822 -78.5542 212° Southwest 444 511 28,800 -600 Descending Washington Center
10:16AM 34.6889 -78.7014 212° Southwest 432 497 28,000 -300 Descending Jacksonville Center
10:17AM 34.5911 -78.7742 212° Southwest 427 491 28,000  Level Jacksonville Center
10:18AM 34.5139 -78.8333 212° Southwest 422 486 28,000  Level Jacksonville Center
10:19AM 34.3981 -78.9292 214° Southwest 422 486 28,000 -300 Level Jacksonville Center
10:20AM 34.3125 -78.9961 213° Southwest 422 486 27,400 -900 Descending Jacksonville Center
10:21AM 34.2036 -79.0511 203° Southwest 422 486 26,200 -1,140 Descending Jacksonville Center
10:22AM 34.0944 -79.1036 202° Southwest 422 486 25,200 -1,140 Descending Jacksonville Center
10:23AM 33.9814 -79.1536 200° South 427 491 24,000 -1,260 Descending Jacksonville Center
10:24AM 33.8700 -79.2033 200° South 427 491 22,700 -1,620 Descending Jacksonville Center
10:25AM 33.7611 -79.2603 204° Southwest 427 491 20,800 -2,100 Descending Jacksonville Center
10:26AM 33.6653 -79.3317 212° Southwest 418 481 18,500 -2,220 Descending Jacksonville Center
10:27AM 33.5733 -79.4028 213° Southwest 408 470 16,400 -2,280 Descending Jacksonville Center
10:28AM 33.4811 -79.4711 212° Southwest 396 456 14,000 -2,460 Descending Jacksonville Center
10:29AM 33.3933 -79.5367 212° Southwest 386 444 11,500 -1,500 Descending Jacksonville Center
10:30AM 33.3072 -79.6019 212° Southwest 381 438 11,000 -300 Descending Jacksonville Center
10:31AM 33.2233 -79.6622 211° Southwest 375 432 10,900 -600 Descending Jacksonville Center
10:32AM 33.1431 -79.7097 206° Southwest 351 404 9,800 -1,440 Descending Jacksonville Center
10:33AM 33.0689 -79.7519 206° Southwest 318 366 8,100 -960 Descending Jacksonville Center
10:34AM 33.0033 -79.7939 208° Southwest 291 335 7,900 -1,020 Descending Jacksonville Center
10:35AM 32.9353 -79.8358 207° Southwest 281 323 6,100 -1,500 Descending Jacksonville Center
10:36AM 32.8675 -79.8753 206° Southwest 281 323 4,900 -1,080 Descending Jacksonville Center
10:37AM 32.7994 -79.9172 207° Southwest 281 323 4,000 -1,200 Descending Jacksonville Center
10:38AM 32.7658 -79.9922 242° Southwest 261 300 2,600 -1,200 Descending Jacksonville Center
10:39AM 32.7842 -80.0683 286° West 227 261 1,700 -900 Descending Jacksonville Center
10:41AM 32.8833 -80.0333 348° North  Level FlightAware Approximate
10:48AM 32.8986 -80.0405 348° North  Level Estimated
10:49AM 32.8986 -80.0405 348° North  Level Estimated
10:50AM 32.8986 -80.0405 348° North  Level Estimated